Watertown Regional Airport
KATY : now visible

Airfield :











YOU CAN JOIN US ON...

 
LOGIN :

Register | Disclaimer

   EN    FR    IT 

 









Legend :    VFR   Marginal VFR   IFR   Intensive IFR   Very Intensive IFR
Visi :
Ceiling :
>= 8 km
>= 3000ft
5 to 8 km
1000 to 3000 ft
1500m to 5 km
500 to 1000 ft
800 to 1500m
200 to 500 ft
< 800m
< 200 ft
Symbols :   Thunderstorms  Fog  Heavy snow  Heavy precipitations  Wind > 20 kt






- Airport Elevation : 1749 ft
- IATA code : ATY


KATY - Watertown Regional

CURRENT METAR :
  • 280353Z AUTO 18006KT 10SM CLR M02/M05 A3000 RMK AO2 SLP180 T10171050 $

EXPIRED METARs :
  • 280253Z AUTO 19006KT 10SM CLR M01/M05 A3001 RMK AO2 SLP186 T10061050 58007 $
  • 280153Z AUTO 20007KT 10SM CLR 00/M04 A3002 RMK AO2 SLP189 T00001039 $

TAF KATY
Valid from the 28 at 00:00 until the 29 at 00:00 UTC


272320Z 2800/2824 21008KT P6SM FEW250
FM281500 24010G16KT P6SM SKC
FM282200 23009KT P6SM FEW250
KZMP FIR / North America



MET'MAP, your aeronautical weather chart ! - Copyright ORBIFLY December 2007 - Disclaimer

ORBIFLY MET'MAP TEAM :

Programming & Development : Alexandra Zaïnal
Concept & original design : Baudouin d'Aumeries
Assistance for programming : Marc-Olivier Méhu
Technical & hardware support : Manuel Goepfert

Contact : metmap@orbifly.com




SOURCES & CREDITS :

   NOAA       Earth
Advisory